Crowell, Texas
Current Conditions -  °F | °C
As of 3:36 AM on Saturday 25 Oct 2014 (Local Time) from KF05 Reporting Station
Clear Clear  
Wind Chill: 63°   Ceiling: Unl
Heat Index: 63°   Visibility: 10mi
Dew Point: 54°   Wind: 7mph
Humidity: 72%   Direction: 200°SSW
Pressure: 30.07"   Gusts: NA
Location:  33.98°N, 99.72°W
Report Text: KF05 250836Z AUTO 20006KT 10SM CLR 17/12 A3007 RMK AO2
Loading
Personal Weather Stations






























Interactive Weather Map
Tropical Storm Tracking
New forecast layout! Learn more

10-Day Weather Forecast

Advertisements
Track Severe Weather on mobile